createdAt,value
2023-04-03T00:00:16.827Z,-3.70
2023-04-03T00:02:47.064Z,-3.80
2023-04-03T00:05:17.431Z,-3.90
2023-04-03T00:07:47.702Z,-4.00
2023-04-03T00:10:17.942Z,-4.10
2023-04-03T00:12:50.128Z,-4.20
2023-04-03T00:15:21.393Z,-4.20
2023-04-03T00:17:51.563Z,-4.20
2023-04-03T00:20:21.959Z,-4.40
2023-04-03T00:22:52.179Z,-4.60
2023-04-03T00:25:22.459Z,-4.60
2023-04-03T00:27:55.650Z,-4.60
2023-04-03T00:30:27.565Z,-4.60
2023-04-03T00:32:58.519Z,-4.60
2023-04-03T00:35:29.293Z,-4.40
2023-04-03T00:37:59.687Z,-4.50
2023-04-03T00:40:31.174Z,-4.40
2023-04-03T00:43:12.727Z,-4.40
2023-04-03T00:45:44.887Z,-4.30
2023-04-03T00:48:19.656Z,-4.40
2023-04-03T00:50:51.624Z,-4.20
2023-04-03T00:53:25.340Z,-4.20
2023-04-03T00:55:59.143Z,-4.30
2023-04-03T00:58:37.129Z,-4.30
2023-04-03T01:01:12.061Z,-4.30
2023-04-03T01:03:42.447Z,-4.20
2023-04-03T01:06:12.639Z,-4.30
2023-04-03T01:08:42.858Z,-4.20
2023-04-03T01:11:13.074Z,-4.20
2023-04-03T01:13:45.208Z,-4.00
2023-04-03T01:16:15.845Z,-3.90
2023-04-03T01:18:47.348Z,-3.80
2023-04-03T01:21:58.630Z,-3.80
2023-04-03T01:24:37.501Z,-3.80
2023-04-03T01:27:10.400Z,-3.80
2023-04-03T01:29:43.314Z,-3.80
2023-04-03T01:32:15.430Z,-3.80
2023-04-03T01:34:45.695Z,-3.70
2023-04-03T01:37:16.135Z,-3.60
2023-04-03T01:39:46.241Z,-3.50
2023-04-03T01:42:18.010Z,-3.40
2023-04-03T01:44:48.223Z,-3.20
2023-04-03T01:47:20.173Z,-3.10
2023-04-03T01:49:50.878Z,-3.20
2023-04-03T01:52:21.516Z,-3.10
2023-04-03T01:54:52.124Z,-3.10
2023-04-03T01:57:22.495Z,-3.10
2023-04-03T01:59:52.882Z,-3.10
2023-04-03T02:02:24.865Z,-3.20
2023-04-03T02:04:56.430Z,-3.30
2023-04-03T02:07:26.706Z,-3.40
2023-04-03T02:09:57.206Z,-3.50
2023-04-03T02:12:27.764Z,-3.60
2023-04-03T02:14:57.897Z,-3.70
2023-04-03T02:17:29.890Z,-3.70
2023-04-03T02:20:00.083Z,-3.60
2023-04-03T02:22:30.570Z,-3.50
2023-04-03T02:25:00.800Z,-3.50
2023-04-03T02:27:33.599Z,-3.50
2023-04-03T02:30:04.022Z,-3.40
2023-04-03T02:32:37.096Z,-3.10
2023-04-03T02:35:07.975Z,-3.00
2023-04-03T02:37:38.311Z,-2.90
2023-04-03T02:40:09.666Z,-2.90
2023-04-03T02:42:39.946Z,-3.00
2023-04-03T02:45:11.045Z,-3.00
2023-04-03T02:47:43.312Z,-3.10
2023-04-03T02:50:13.819Z,-3.20
2023-04-03T02:52:44.203Z,-3.30
2023-04-03T02:55:18.637Z,-3.20
2023-04-03T02:57:48.817Z,-3.30
2023-04-03T03:00:19.492Z,-3.30
2023-04-03T03:02:52.801Z,-3.40
2023-04-03T03:05:23.507Z,-3.40
2023-04-03T03:07:53.916Z,-3.40
2023-04-03T03:10:24.421Z,-3.40
2023-04-03T03:12:54.783Z,-3.40
2023-04-03T03:15:25.212Z,-3.30
2023-04-03T03:17:57.213Z,-3.20
2023-04-03T03:20:27.484Z,-3.30
2023-04-03T03:22:58.289Z,-3.20
2023-04-03T03:25:31.243Z,-3.10
2023-04-03T03:28:13.214Z,-3.00
2023-04-03T03:30:43.428Z,-2.90
2023-04-03T03:33:15.423Z,-2.70
2023-04-03T03:35:46.602Z,-2.60
2023-04-03T03:38:17.006Z,-2.60
2023-04-03T03:40:47.145Z,-2.50
2023-04-03T03:43:17.590Z,-2.40
2023-04-03T03:45:48.646Z,-2.30
2023-04-03T03:48:20.491Z,-2.10
2023-04-03T03:50:50.890Z,-2.10
2023-04-03T03:53:21.510Z,-2.00
2023-04-03T03:55:51.606Z,-1.90
2023-04-03T03:58:21.815Z,-1.90
2023-04-03T04:00:52.271Z,-1.90
2023-04-03T04:03:24.182Z,-1.90
2023-04-03T04:05:54.759Z,-1.90
2023-04-03T04:08:24.943Z,-1.80
2023-04-03T04:10:55.063Z,-1.80
2023-04-03T04:13:25.283Z,-1.80
2023-04-03T04:15:55.421Z,-1.80
2023-04-03T04:18:27.773Z,-1.80
2023-04-03T04:20:57.917Z,-1.80
2023-04-03T04:23:28.270Z,-1.80
2023-04-03T04:25:58.441Z,-1.90
2023-04-03T04:28:28.666Z,-1.90
2023-04-03T04:30:58.795Z,-2.00
2023-04-03T04:33:30.679Z,-2.10
2023-04-03T04:36:01.009Z,-2.20
2023-04-03T04:38:31.259Z,-2.30
2023-04-03T04:41:01.465Z,-2.40
2023-04-03T04:43:31.850Z,-2.50
2023-04-03T04:46:06.287Z,-2.50
2023-04-03T04:48:38.824Z,-2.60
2023-04-03T04:51:09.612Z,-2.60
2023-04-03T04:53:41.205Z,-2.70
2023-04-03T04:56:11.568Z,-2.70
2023-04-03T04:58:41.786Z,-2.70
2023-04-03T05:01:13.815Z,-2.70
2023-04-03T05:03:45.640Z,-2.70
2023-04-03T05:06:15.753Z,-2.80
2023-04-03T05:08:46.355Z,-2.80
2023-04-03T05:11:16.734Z,-2.80
2023-04-03T05:13:47.055Z,-2.80
2023-04-03T05:16:17.204Z,-2.80
2023-04-03T05:18:49.002Z,-2.80
2023-04-03T05:21:19.817Z,-2.80
2023-04-03T05:23:50.264Z,-2.80
2023-04-03T05:26:20.436Z,-2.70
2023-04-03T05:28:50.572Z,-2.70
2023-04-03T05:31:20.672Z,-2.70
2023-04-03T05:33:53.022Z,-2.60
2023-04-03T05:36:23.421Z,-2.50
2023-04-03T05:38:53.802Z,-2.50
2023-04-03T05:41:24.085Z,-2.50
2023-04-03T05:43:54.341Z,-2.50
2023-04-03T05:46:24.669Z,-2.50
2023-04-03T05:48:56.705Z,-2.60
2023-04-03T05:51:32.124Z,-2.60
2023-04-03T05:54:09.322Z,-2.70
2023-04-03T05:56:39.427Z,-2.80
2023-04-03T05:59:09.874Z,-2.80
2023-04-03T06:01:40.293Z,-2.90
2023-04-03T06:04:12.141Z,-2.90
2023-04-03T06:06:50.123Z,-2.90
2023-04-03T06:09:20.698Z,-2.90
2023-04-03T06:11:51.195Z,-3.00
2023-04-03T06:14:22.232Z,-3.00
2023-04-03T06:16:52.586Z,-3.10
2023-04-03T06:19:25.037Z,-3.10
2023-04-03T06:21:55.650Z,-3.10
2023-04-03T06:24:26.922Z,-3.10
2023-04-03T06:26:57.101Z,-3.20
2023-04-03T06:29:28.096Z,-3.30
2023-04-03T06:31:58.276Z,-3.30
2023-04-03T06:34:30.106Z,-3.40
2023-04-03T06:37:00.568Z,-3.40
2023-04-03T06:39:31.172Z,-3.40
2023-04-03T06:42:01.707Z,-3.40
2023-04-03T06:44:32.650Z,-3.40
2023-04-03T06:47:02.782Z,-3.30
2023-04-03T06:49:35.152Z,-3.30
2023-04-03T06:52:06.391Z,-3.20
2023-04-03T06:54:37.053Z,-3.20
2023-04-03T06:57:07.250Z,-3.10
2023-04-03T06:59:38.008Z,-3.00
2023-04-03T07:02:08.278Z,-3.00
2023-04-03T07:04:40.117Z,-2.90
2023-04-03T07:07:10.625Z,-2.80
2023-04-03T07:09:41.565Z,-2.80
2023-04-03T07:12:13.274Z,-2.80
2023-04-03T07:14:44.300Z,-2.80
2023-04-03T07:17:14.697Z,-2.70
2023-04-03T07:19:46.601Z,-2.70
2023-04-03T07:22:16.718Z,-2.70
2023-04-03T07:24:47.172Z,-2.70
2023-04-03T07:27:17.291Z,-2.70
2023-04-03T07:29:49.142Z,-2.70
2023-04-03T07:32:19.763Z,-2.80
2023-04-03T07:34:51.601Z,-2.80
2023-04-03T07:37:22.143Z,-2.80
2023-04-03T07:39:52.613Z,-2.90
2023-04-03T07:42:22.984Z,-2.90
2023-04-03T07:44:53.379Z,-2.90
2023-04-03T07:47:23.552Z,-3.00
2023-04-03T07:49:55.903Z,-3.00
2023-04-03T07:52:26.679Z,-3.00
2023-04-03T07:54:56.862Z,-3.10
2023-04-03T07:57:27.064Z,-3.10
2023-04-03T07:59:57.682Z,-3.10
2023-04-03T08:02:28.498Z,-3.20
2023-04-03T08:05:00.673Z,-3.30
2023-04-03T08:07:31.090Z,-3.30
2023-04-03T08:10:01.687Z,-3.30
2023-04-03T08:12:33.506Z,-3.30
2023-04-03T08:15:04.341Z,-3.30
2023-04-03T08:17:34.724Z,-3.30
2023-04-03T08:20:08.123Z,-3.30
2023-04-03T08:22:38.324Z,-3.30
2023-04-03T08:25:09.161Z,-3.20
2023-04-03T08:27:39.632Z,-3.20
2023-04-03T08:30:11.381Z,-3.20
2023-04-03T08:32:43.519Z,-3.20
2023-04-03T08:35:15.680Z,-3.20
2023-04-03T08:37:45.798Z,-3.10
2023-04-03T08:40:19.341Z,-3.10
2023-04-03T08:43:01.397Z,-3.00
2023-04-03T08:45:41.714Z,-3.00
2023-04-03T08:48:17.782Z,-3.00
2023-04-03T08:50:53.685Z,-2.90
2023-04-03T08:53:26.734Z,-2.90
2023-04-03T08:55:58.043Z,-2.90
2023-04-03T08:58:30.730Z,-2.90
2023-04-03T09:01:05.648Z,-3.00
2023-04-03T09:03:37.881Z,-3.00
2023-04-03T09:06:15.282Z,-3.00
2023-04-03T09:08:51.314Z,-3.00
2023-04-03T09:11:29.301Z,-3.10
2023-04-03T09:14:04.555Z,-3.00
2023-04-03T09:16:44.418Z,-3.00
2023-04-03T09:19:25.313Z,-3.00
2023-04-03T09:21:59.465Z,-3.00
2023-04-03T09:24:29.920Z,-3.10
2023-04-03T09:27:04.841Z,-3.10
2023-04-03T09:29:37.954Z,-3.10
2023-04-03T09:32:24.405Z,-3.20
2023-04-03T09:34:58.150Z,-3.20
2023-04-03T09:37:44.446Z,-3.20
2023-04-03T09:40:36.345Z,-3.30
2023-04-03T09:43:22.059Z,-3.30
2023-04-03T09:45:54.102Z,-3.30
2023-04-03T09:48:27.038Z,-3.30
2023-04-03T09:51:00.879Z,-3.30
2023-04-03T09:53:38.978Z,-3.30
2023-04-03T09:56:23.871Z,-3.20
2023-04-03T09:59:06.255Z,-3.10
2023-04-03T10:01:37.886Z,-3.10
2023-04-03T10:04:13.297Z,-3.00
2023-04-03T10:06:46.617Z,-3.00
2023-04-03T10:09:25.981Z,-3.00
2023-04-03T10:12:06.309Z,-2.90
2023-04-03T10:14:37.735Z,-2.90
2023-04-03T10:17:21.637Z,-2.80
2023-04-03T10:19:58.057Z,-2.80
2023-04-03T10:22:41.178Z,-2.70
2023-04-03T10:25:20.508Z,-2.60
2023-04-03T10:27:58.849Z,-2.60
2023-04-03T10:30:43.020Z,-2.50
2023-04-03T10:33:39.654Z,-2.50
2023-04-03T10:36:21.213Z,-2.50
2023-04-03T10:39:01.000Z,-2.40
2023-04-03T10:41:46.850Z,-2.40
2023-04-03T10:44:24.208Z,-2.40
2023-04-03T10:47:00.429Z,-2.30
2023-04-03T10:49:50.043Z,-2.30
2023-04-03T10:52:36.342Z,-2.20
2023-04-03T10:55:22.466Z,-2.20
2023-04-03T10:57:54.828Z,-2.20
2023-04-03T11:00:31.121Z,-2.10
2023-04-03T11:03:05.047Z,-2.00
2023-04-03T11:05:40.915Z,-1.90
2023-04-03T11:08:19.033Z,-1.90
2023-04-03T11:10:53.005Z,-1.90
2023-04-03T11:13:30.004Z,-1.90
2023-04-03T11:16:01.229Z,-1.80
2023-04-03T11:18:40.660Z,-1.80
2023-04-03T11:21:16.206Z,-1.80
2023-04-03T11:23:50.101Z,-1.80
2023-04-03T11:26:22.453Z,-1.80
2023-04-03T11:29:02.311Z,-1.70
2023-04-03T11:32:00.350Z,-1.60
2023-04-03T11:34:40.175Z,-1.50
2023-04-03T11:37:19.010Z,-1.40
2023-04-03T11:39:58.554Z,-1.40
2023-04-03T11:42:38.035Z,-1.30
2023-04-03T11:45:35.039Z,-1.30
2023-04-03T11:48:20.994Z,-1.20
2023-04-03T11:50:54.458Z,-1.10
2023-04-03T11:53:36.761Z,-1.10
2023-04-03T11:56:34.121Z,-1.10
2023-04-03T11:59:27.536Z,-1.00
2023-04-03T12:02:01.288Z,-0.90
2023-04-03T12:04:33.678Z,-0.90
2023-04-03T12:07:25.271Z,-0.90
2023-04-03T12:10:02.104Z,-0.90
2023-04-03T12:12:36.004Z,-0.90
2023-04-03T12:15:44.580Z,-0.90
2023-04-03T12:18:53.688Z,-1.00
2023-04-03T12:21:26.499Z,-1.10
2023-04-03T12:24:06.304Z,-1.20
2023-04-03T12:26:48.756Z,-1.30
2023-04-03T12:29:25.257Z,-1.20
2023-04-03T12:32:09.493Z,-1.20
2023-04-03T12:35:04.377Z,-1.20
2023-04-03T12:37:47.497Z,-1.10
2023-04-03T12:40:30.344Z,-1.10
2023-04-03T12:43:16.434Z,-0.90
2023-04-03T12:45:50.742Z,-0.70
2023-04-03T12:48:25.602Z,-0.50
2023-04-03T12:50:57.974Z,-0.40
2023-04-03T12:53:34.784Z,-0.30
2023-04-03T12:56:23.765Z,-0.30
2023-04-03T12:58:55.242Z,-0.30
2023-04-03T13:01:27.550Z,-0.20
2023-04-03T13:04:00.495Z,-0.20
2023-04-03T13:06:42.979Z,0.10
2023-04-03T13:09:25.356Z,0.20
2023-04-03T13:12:00.615Z,0.20
2023-04-03T13:14:32.063Z,0.30
2023-04-03T13:17:06.390Z,0.40
2023-04-03T13:19:36.555Z,0.40
2023-04-03T13:22:09.338Z,0.50
2023-04-03T13:24:43.154Z,0.80
2023-04-03T13:27:15.900Z,1.20
2023-04-03T13:29:46.380Z,1.40
2023-04-03T13:32:24.209Z,1.90
2023-04-03T13:34:54.569Z,2.10
2023-04-03T13:37:26.983Z,2.50
2023-04-03T13:40:14.165Z,2.70
2023-04-03T13:42:46.930Z,3.00
2023-04-03T13:45:25.571Z,3.20
2023-04-03T13:48:22.191Z,3.20
2023-04-03T13:51:03.697Z,3.30
2023-04-03T13:53:36.244Z,3.50
2023-04-03T13:56:19.581Z,3.70
2023-04-03T13:58:58.689Z,3.70
2023-04-03T14:01:37.221Z,3.80
2023-04-03T14:04:17.447Z,4.00
2023-04-03T14:06:48.439Z,4.20
2023-04-03T14:09:19.928Z,4.20
2023-04-03T14:11:54.064Z,4.10
2023-04-03T14:14:26.690Z,3.90
2023-04-03T14:17:00.349Z,4.00
2023-04-03T14:19:33.513Z,4.00
2023-04-03T14:22:07.007Z,4.20
2023-04-03T14:24:37.181Z,4.40
2023-04-03T14:27:19.093Z,4.30
2023-04-03T14:29:50.063Z,4.20
2023-04-03T14:32:21.970Z,4.20
2023-04-03T14:35:40.931Z,4.30
2023-04-03T14:38:24.918Z,4.40
2023-04-03T14:41:00.958Z,4.70
2023-04-03T14:43:40.825Z,5.20
2023-04-03T14:46:17.481Z,5.20
2023-04-03T14:48:48.180Z,5.40
2023-04-03T14:51:20.246Z,5.20
2023-04-03T14:53:50.840Z,5.20
2023-04-03T14:56:25.116Z,5.20
2023-04-03T14:59:02.389Z,5.20
2023-04-03T15:01:33.682Z,5.10
2023-04-03T15:04:04.004Z,5.20
2023-04-03T15:06:35.433Z,5.20
2023-04-03T15:09:06.299Z,5.20
2023-04-03T15:11:36.567Z,5.30
2023-04-03T15:14:08.604Z,5.50
2023-04-03T15:16:39.430Z,5.70
2023-04-03T15:19:10.082Z,6.00
2023-04-03T15:21:40.457Z,5.70
2023-04-03T15:24:12.419Z,5.40
2023-04-03T15:26:43.283Z,5.20
2023-04-03T15:29:15.392Z,5.20
2023-04-03T15:31:46.683Z,5.00
2023-04-03T15:34:17.727Z,4.90
2023-04-03T15:36:48.315Z,4.70
2023-04-03T15:39:19.049Z,4.60
2023-04-03T15:41:49.460Z,4.40
2023-04-03T15:44:21.408Z,4.40
2023-04-03T15:46:52.930Z,4.30
2023-04-03T15:49:24.527Z,4.20
2023-04-03T15:51:55.363Z,4.30
2023-04-03T15:54:36.708Z,4.20
2023-04-03T15:57:07.148Z,4.20
2023-04-03T15:59:39.355Z,4.20
2023-04-03T16:02:11.681Z,4.30
2023-04-03T16:04:41.955Z,4.30
2023-04-03T16:07:12.231Z,4.40
2023-04-03T16:09:42.664Z,4.50
2023-04-03T16:12:13.039Z,4.50
2023-04-03T16:14:44.966Z,4.70
2023-04-03T16:17:15.644Z,4.70
2023-04-03T16:19:47.118Z,4.80
2023-04-03T16:22:18.049Z,4.90
2023-04-03T16:24:48.770Z,5.00
2023-04-03T16:27:19.108Z,5.00
2023-04-03T16:29:51.343Z,4.90
2023-04-03T16:32:21.605Z,4.80
2023-04-03T16:34:52.219Z,4.80
2023-04-03T16:37:22.384Z,4.80
2023-04-03T16:39:52.740Z,4.70
2023-04-03T16:42:23.325Z,4.70
2023-04-03T16:44:55.242Z,4.80
2023-04-03T16:47:25.462Z,4.70
2023-04-03T16:49:55.807Z,4.60
2023-04-03T16:52:26.225Z,4.60
2023-04-03T16:54:57.067Z,4.60
2023-04-03T16:57:27.829Z,4.60
2023-04-03T16:59:59.890Z,4.60
2023-04-03T17:02:30.930Z,4.50
2023-04-03T17:05:01.053Z,4.40
2023-04-03T17:07:31.234Z,4.40
2023-04-03T17:10:01.719Z,4.30
2023-04-03T17:12:32.370Z,4.30
2023-04-03T17:15:04.218Z,4.20
2023-04-03T17:17:35.102Z,4.10
2023-04-03T17:20:05.909Z,4.00
2023-04-03T17:22:36.493Z,3.90
2023-04-03T17:25:07.049Z,3.80
2023-04-03T17:27:37.521Z,3.60
2023-04-03T17:30:11.646Z,3.40
2023-04-03T17:32:42.192Z,3.30
2023-04-03T17:35:38.585Z,3.10
2023-04-03T17:38:09.292Z,3.10
2023-04-03T17:40:39.777Z,2.90
2023-04-03T17:43:10.664Z,2.80
2023-04-03T17:45:42.987Z,2.80
2023-04-03T17:48:13.270Z,2.90
2023-04-03T17:50:44.343Z,2.90
2023-04-03T17:53:15.803Z,2.90
2023-04-03T17:55:46.394Z,3.10
2023-04-03T17:58:18.853Z,3.20
2023-04-03T18:00:50.950Z,3.40
2023-04-03T18:03:21.488Z,3.60
2023-04-03T18:05:55.394Z,3.70
2023-04-03T18:08:25.824Z,3.70
2023-04-03T18:10:56.127Z,3.90
2023-04-03T18:13:26.422Z,3.80
2023-04-03T18:15:58.368Z,3.80
2023-04-03T18:18:28.855Z,3.80
2023-04-03T18:20:59.083Z,3.80
2023-04-03T18:23:30.912Z,4.00
2023-04-03T18:26:02.157Z,4.20
2023-04-03T18:28:34.322Z,4.30
2023-04-03T18:31:06.646Z,4.40
2023-04-03T18:33:36.931Z,4.70
2023-04-03T18:36:08.036Z,4.80
2023-04-03T18:38:38.439Z,4.80
2023-04-03T18:41:11.623Z,5.00
2023-04-03T18:43:42.030Z,5.10
2023-04-03T18:46:14.315Z,5.00
2023-04-03T18:48:46.637Z,5.00
2023-04-03T18:51:17.894Z,5.20
2023-04-03T18:53:48.186Z,5.50
2023-04-03T18:56:18.484Z,5.50
2023-04-03T18:58:48.891Z,5.50
2023-04-03T19:01:21.311Z,5.30
2023-04-03T19:03:51.929Z,5.30
2023-04-03T19:06:22.369Z,5.20
2023-04-03T19:08:53.528Z,5.20
2023-04-03T19:11:23.737Z,5.20
2023-04-03T19:14:10.357Z,5.20
2023-04-03T19:16:46.088Z,5.10
2023-04-03T19:19:16.511Z,5.30
2023-04-03T19:21:47.110Z,5.40
2023-04-03T19:24:17.428Z,5.60
2023-04-03T19:26:47.571Z,5.70
2023-04-03T19:29:18.349Z,5.80
2023-04-03T19:31:50.113Z,6.00
2023-04-03T19:34:20.412Z,6.20
2023-04-03T19:36:53.693Z,6.30
2023-04-03T19:39:24.412Z,6.30
2023-04-03T19:41:54.554Z,6.30
2023-04-03T19:44:24.841Z,6.40
2023-04-03T19:46:57.824Z,6.50
2023-04-03T19:49:28.141Z,6.50
2023-04-03T19:51:59.302Z,6.50
2023-04-03T19:54:29.451Z,6.60
2023-04-03T19:57:00.642Z,6.60
2023-04-03T19:59:31.130Z,6.50
2023-04-03T20:02:03.701Z,6.50
2023-04-03T20:04:33.956Z,6.40
2023-04-03T20:07:04.536Z,6.30
2023-04-03T20:09:35.266Z,6.30
2023-04-03T20:12:05.727Z,6.30
2023-04-03T20:14:36.245Z,6.40
2023-04-03T20:17:08.045Z,6.60
2023-04-03T20:19:38.365Z,6.80
2023-04-03T20:22:08.791Z,7.10
2023-04-03T20:24:38.994Z,7.30
2023-04-03T20:27:09.340Z,7.50
2023-04-03T20:29:40.227Z,7.90
2023-04-03T20:32:12.595Z,8.20
2023-04-03T20:34:44.282Z,8.40
2023-04-03T20:37:14.497Z,8.50
2023-04-03T20:39:44.632Z,8.50
2023-04-03T20:42:14.759Z,8.50
2023-04-03T20:44:46.789Z,8.60
2023-04-03T20:47:19.114Z,8.50
2023-04-03T20:49:49.661Z,8.50
2023-04-03T20:52:20.222Z,8.40
2023-04-03T20:54:51.529Z,8.30
2023-04-03T20:57:22.315Z,8.10
2023-04-03T20:59:54.977Z,8.10
2023-04-03T21:02:26.956Z,8.00
2023-04-03T21:04:58.307Z,7.90
2023-04-03T21:08:04.994Z,8.00
2023-04-03T21:11:11.494Z,8.00
2023-04-03T21:14:19.790Z,7.90
2023-04-03T21:16:49.042Z,7.90
2023-04-03T21:19:23.043Z,7.80
2023-04-03T21:21:53.395Z,7.70
2023-04-03T21:24:24.303Z,7.70
2023-04-03T21:26:55.073Z,7.60
2023-04-03T21:29:25.267Z,7.60
2023-04-03T21:31:59.041Z,7.60
2023-04-03T21:34:31.676Z,7.60
2023-04-03T21:37:05.696Z,7.60
2023-04-03T21:39:36.605Z,7.70
2023-04-03T21:42:08.059Z,7.80
2023-04-03T21:44:38.383Z,7.80
2023-04-03T21:47:08.559Z,7.80
2023-04-03T21:49:46.614Z,7.80
2023-04-03T21:52:18.502Z,7.80
2023-04-03T21:54:48.852Z,7.90
2023-04-03T21:57:20.406Z,7.90
2023-04-03T21:59:51.508Z,7.90
2023-04-03T22:02:21.829Z,7.90
2023-04-03T22:04:53.831Z,7.80
2023-04-03T22:07:24.069Z,7.80
2023-04-03T22:09:54.212Z,7.80
2023-04-03T22:12:25.115Z,7.80
2023-04-03T22:14:55.321Z,7.90
2023-04-03T22:17:25.734Z,8.30
2023-04-03T22:19:57.527Z,8.40
2023-04-03T22:22:27.865Z,8.20
2023-04-03T22:24:58.152Z,8.10
2023-04-03T22:27:28.329Z,7.90
2023-04-03T22:29:58.722Z,7.80
2023-04-03T22:32:28.945Z,7.60
2023-04-03T22:35:00.854Z,7.60
2023-04-03T22:37:30.995Z,7.60
2023-04-03T22:40:01.348Z,7.60
2023-04-03T22:42:32.198Z,7.60
2023-04-03T22:45:02.657Z,7.50
2023-04-03T22:47:33.563Z,7.40
2023-04-03T22:50:05.320Z,7.30
2023-04-03T22:52:35.600Z,7.20
2023-04-03T22:55:16.513Z,7.10
2023-04-03T22:57:49.720Z,7.10
2023-04-03T23:00:21.450Z,7.10
2023-04-03T23:02:52.024Z,7.10
2023-04-03T23:05:24.180Z,7.00
2023-04-03T23:07:56.045Z,7.00
2023-04-03T23:10:26.996Z,6.90
2023-04-03T23:12:57.598Z,6.90
2023-04-03T23:15:27.959Z,6.80
2023-04-03T23:17:58.882Z,6.70
2023-04-03T23:20:30.903Z,6.60
2023-04-03T23:23:01.303Z,6.50
2023-04-03T23:25:31.747Z,6.40
2023-04-03T23:28:02.108Z,6.20
2023-04-03T23:30:32.952Z,6.10
2023-04-03T23:33:04.512Z,5.90
2023-04-03T23:35:36.321Z,5.60
2023-04-03T23:38:06.528Z,5.30
2023-04-03T23:40:36.695Z,4.90
2023-04-03T23:43:06.865Z,4.70
2023-04-03T23:45:37.029Z,4.40
2023-04-03T23:48:07.814Z,4.20
2023-04-03T23:50:40.193Z,4.10
2023-04-03T23:53:11.110Z,3.80
2023-04-03T23:55:41.394Z,3.80
2023-04-03T23:58:11.583Z,4.00
